Time;durP1;ratioP1;P1;durP2;ratioP2;P2;SDS_P1;SDS_P2;PMS_P1;PMS_P2;Temp;Humidity;BMP_temperature;BMP_pressure;BME280_temperature;BME280_humidity;BME280_pressure;Samples;Min_cycle;Max_cycle;Signal;HPM_P1;HPM_P2
2023/03/06 00:02:16;;;;;;;25.50;15.80;;;77.20;2227.20;;;;;;4948549;29;20125;-61
2023/03/06 00:04:41;;;;;;;27.05;17.85;;;77.10;2227.20;;;;;;4949836;29;20027;-65
2023/03/06 00:07:07;;;;;;;33.65;19.25;;;77.20;2227.20;;;;;;4951231;29;20023;-66
2023/03/06 00:09:33;;;;;;;45.35;26.38;;;77.20;2227.20;;;;;;4951056;29;20099;-57
2023/03/06 00:11:58;;;;;;;40.00;23.55;;;77.30;2227.20;;;;;;4953195;28;20112;-57
2023/03/06 00:14:24;;;;;;;51.33;25.17;;;77.30;2227.20;;;;;;4955430;29;20063;-56
2023/03/06 00:16:54;;;;;;;42.97;23.48;;;77.30;2227.20;;;;;;4953787;29;20505;-57
2023/03/06 00:19:20;;;;;;;40.33;26.30;;;77.30;2227.20;;;;;;4954632;29;20035;-63
2023/03/06 00:21:46;;;;;;;37.53;22.35;;;77.30;2227.20;;;;;;4954677;29;20027;-61
2023/03/06 00:24:12;;;;;;;46.70;27.30;;;77.30;2227.20;;;;;;4954604;29;20382;-61
2023/03/06 00:26:40;;;;;;;100.82;46.35;;;77.30;2227.20;;;;;;4954539;29;20023;-57
2023/03/06 00:29:06;;;;;;;68.30;38.75;;;77.30;2227.20;;;;;;4954714;29;20016;-63
2023/03/06 00:31:32;;;;;;;40.40;24.52;;;77.30;2227.20;;;;;;4954745;29;20062;-63
2023/03/06 00:33:58;;;;;;;51.00;27.08;;;77.30;2227.20;;;;;;4937146;29;20067;-61
2023/03/06 00:36:23;;;;;;;44.15;22.88;;;77.20;2227.20;;;;;;4954600;29;20023;-63
2023/03/06 00:38:49;;;;;;;63.88;36.25;;;77.10;2227.20;;;;;;4954059;28;20557;-62
2023/03/06 00:41:15;;;;;;;101.32;56.10;;;77.20;2227.20;;;;;;4973757;28;20114;-58
2023/03/06 00:43:40;;;;;;;107.78;54.17;;;77.20;2227.20;;;;;;4973975;28;20071;-57
2023/03/06 00:46:06;;;;;;;115.25;60.17;;;77.20;2227.20;;;;;;4973500;28;20018;-59
2023/03/06 00:48:33;;;;;;;91.47;50.00;;;77.20;2227.20;;;;;;4973582;28;20047;-63
2023/03/06 00:50:59;;;;;;;108.45;56.03;;;77.20;2227.20;;;;;;4973429;28;20026;-60
2023/03/06 00:53:25;;;;;;;102.57;53.05;;;77.20;2227.20;;;;;;4971774;28;20082;-63
2023/03/06 00:55:51;;;;;;;103.13;53.50;;;77.30;2227.20;;;;;;4972900;28;20023;-58
2023/03/06 00:58:17;;;;;;;101.40;54.67;;;77.20;2227.20;;;;;;4972610;28;20446;-58
2023/03/06 01:00:43;;;;;;;106.43;53.35;;;77.20;2227.20;;;;;;4971560;28;20093;-56
2023/03/06 01:03:09;;;;;;;77.97;41.22;;;77.20;2227.20;;;;;;4973519;28;20029;-57
2023/03/06 01:05:36;;;;;;;173.75;100.35;;;77.10;2227.20;;;;;;4973588;28;20105;-59
2023/03/06 01:08:03;;;;;;;174.43;105.15;;;77.00;2227.20;;;;;;4972964;28;20030;-58
2023/03/06 01:10:29;;;;;;;166.60;96.45;;;76.90;2227.20;;;;;;4971205;28;20062;-65
2023/03/06 01:12:55;;;;;;;124.85;72.70;;;77.00;2227.20;;;;;;4969698;28;20403;-64
2023/03/06 01:15:21;;;;;;;130.90;75.10;;;77.00;2227.20;;;;;;4971338;28;20109;-66
2023/03/06 01:17:50;;;;;;;142.27;83.25;;;77.00;2227.20;;;;;;4972692;28;20062;-58
2023/03/06 01:20:17;;;;;;;160.15;92.72;;;76.90;2227.20;;;;;;4972372;28;20033;-60
2023/03/06 01:22:43;;;;;;;138.02;75.75;;;77.00;2227.20;;;;;;4971918;28;20041;-63
2023/03/06 01:25:09;;;;;;;141.45;76.53;;;76.80;2227.20;;;;;;4966700;28;20035;-56
2023/03/06 01:27:35;;;;;;;215.35;114.40;;;76.90;2227.20;;;;;;4972446;28;20074;-57
2023/03/06 01:30:01;;;;;;;202.32;113.28;;;76.80;2227.20;;;;;;4969587;28;20062;-56
2023/03/06 01:32:26;;;;;;;152.13;88.35;;;76.80;2227.20;;;;;;4972120;28;20041;-58
2023/03/06 01:34:52;;;;;;;104.65;57.45;;;76.80;2227.20;;;;;;4972443;28;20027;-57
2023/03/06 01:37:18;;;;;;;93.05;55.70;;;76.80;2227.20;;;;;;4968742;28;20424;-57
2023/03/06 01:39:44;;;;;;;98.32;56.60;;;52.10;2227.20;;;;;;4972072;28;20055;-57
2023/03/06 01:42:10;;;;;;;99.63;57.17;;;52.10;2227.20;;;;;;4972820;28;20058;-57
2023/03/06 01:44:35;;;;;;;114.82;67.85;;;52.10;2227.20;;;;;;4972890;28;20512;-56
2023/03/06 01:47:01;;;;;;;132.38;79.10;;;52.10;2227.20;;;;;;4972842;28;20027;-57
2023/03/06 01:49:36;;;;;;;149.95;88.55;;;52.10;2227.20;;;;;;4972496;28;20540;-58
2023/03/06 01:52:13;;;;;;;146.57;85.82;;;52.10;2227.20;;;;;;4972578;28;20373;-64
2023/03/06 01:54:49;;;;;;;131.07;77.38;;;52.10;2227.20;;;;;;4972273;28;20062;-64
2023/03/06 01:57:21;;;;;;;119.25;72.72;;;52.10;2227.20;;;;;;4972733;28;20113;-65
2023/03/06 01:59:51;;;;;;;66.90;38.17;;;52.10;2227.20;;;;;;4972386;28;20474;-60
2023/03/06 02:02:18;;;;;;;71.93;39.90;;;52.10;2227.20;;;;;;4972448;28;20054;-58
2023/03/06 02:04:44;;;;;;;58.65;33.63;;;52.10;2227.20;;;;;;4972321;28;20544;-59
2023/03/06 02:07:11;;;;;;;58.42;32.47;;;52.00;2227.20;;;;;;4972748;28;20037;-66
2023/03/06 02:09:37;;;;;;;48.60;28.33;;;52.00;2227.20;;;;;;4971759;28;20129;-57
2023/03/06 02:12:15;;;;;;;53.25;28.40;;;51.90;2227.20;;;;;;4972122;28;20463;-62
2023/03/06 02:14:42;;;;;;;55.20;28.75;;;51.90;2227.20;;;;;;4960015;28;20034;-63
2023/03/06 02:17:10;;;;;;;50.40;30.02;;;51.90;2227.20;;;;;;4971805;28;20089;-62
2023/03/06 02:19:52;;;;;;;56.40;33.80;;;52.00;2227.20;;;;;;4971844;28;20033;-63
2023/03/06 02:22:18;;;;;;;60.83;33.85;;;51.90;2227.20;;;;;;4971903;28;20117;-57
2023/03/06 02:24:47;;;;;;;93.20;52.88;;;52.00;2227.20;;;;;;4971754;28;20085;-63
2023/03/06 02:27:14;;;;;;;54.13;33.03;;;51.90;2227.20;;;;;;4971715;28;20070;-57
2023/03/06 02:29:42;;;;;;;60.00;31.95;;;52.00;2227.20;;;;;;4971709;28;20023;-64
2023/03/06 02:32:07;;;;;;;79.95;48.22;;;51.90;2227.20;;;;;;4971269;28;20023;-58
2023/03/06 02:34:36;;;;;;;145.40;87.93;;;51.80;2227.20;;;;;;4960270;28;20031;-57
2023/03/06 02:37:07;;;;;;;100.22;59.58;;;51.80;2227.20;;;;;;4970066;28;20039;-57
2023/03/06 02:39:39;;;;;;;71.25;37.97;;;51.80;2227.20;;;;;;4971341;28;20050;-60
2023/03/06 02:42:04;;;;;;;63.25;35.50;;;51.80;2227.20;;;;;;4971556;28;20027;-63
2023/03/06 02:44:33;;;;;;;59.03;32.38;;;51.70;2227.20;;;;;;4971150;28;20053;-64
2023/03/06 02:46:59;;;;;;;49.90;29.25;;;51.80;2227.20;;;;;;4958760;28;20023;-58
2023/03/06 02:49:24;;;;;;;54.33;35.58;;;51.80;2227.20;;;;;;4971522;28;20388;-62
2023/03/06 02:51:50;;;;;;;53.28;33.60;;;51.80;2227.20;;;;;;4971666;28;20027;-58
2023/03/06 02:54:19;;;;;;;46.30;27.73;;;51.80;2227.20;;;;;;4971429;28;20073;-62
2023/03/06 02:56:45;;;;;;;79.20;48.20;;;51.70;2227.20;;;;;;4971444;28;20015;-60
2023/03/06 02:59:11;;;;;;;59.75;37.17;;;51.70;2227.20;;;;;;4971018;28;20035;-58
2023/03/06 03:01:37;;;;;;;52.20;28.58;;;51.60;2227.20;;;;;;4971107;28;20545;-60
2023/03/06 03:04:03;;;;;;;66.15;36.95;;;51.70;2227.20;;;;;;4971319;28;20027;-62
2023/03/06 03:06:28;;;;;;;76.18;43.80;;;51.70;2227.20;;;;;;4970990;28;20090;-62
2023/03/06 03:08:54;;;;;;;51.05;30.75;;;51.70;2227.20;;;;;;4970901;28;20031;-59
2023/03/06 03:11:20;;;;;;;67.10;37.22;;;51.60;2227.20;;;;;;4971030;28;20030;-62
2023/03/06 03:13:46;;;;;;;46.13;28.75;;;51.60;2227.20;;;;;;4970981;28;20126;-62
2023/03/06 03:16:14;;;;;;;51.88;27.55;;;51.60;2227.20;;;;;;4970786;28;20098;-61
2023/03/06 03:18:40;;;;;;;57.28;33.88;;;51.60;2227.20;;;;;;4970578;28;20500;-59
2023/03/06 03:21:11;;;;;;;55.95;30.95;;;51.50;2227.20;;;;;;4970846;28;20019;-59
2023/03/06 03:23:37;;;;;;;53.58;30.60;;;51.50;2227.20;;;;;;4970558;28;20070;-58
2023/03/06 03:26:12;;;;;;;49.15;29.13;;;51.60;2227.20;;;;;;4971038;28;20015;-58
2023/03/06 03:28:37;;;;;;;61.08;35.53;;;51.40;2227.20;;;;;;4970654;28;20035;-61
2023/03/06 03:31:05;;;;;;;60.08;35.50;;;51.40;2227.20;;;;;;4970974;28;20047;-63
2023/03/06 03:33:31;;;;;;;42.42;25.35;;;51.50;2227.20;;;;;;4970596;28;20029;-63
2023/03/06 03:35:58;;;;;;;49.90;29.17;;;51.40;2227.20;;;;;;4970726;28;20508;-57
2023/03/06 03:38:24;;;;;;;49.63;27.30;;;51.40;2227.20;;;;;;4970505;28;20126;-62
2023/03/06 03:40:50;;;;;;;58.65;34.55;;;51.40;2227.20;;;;;;4970703;28;20121;-59
2023/03/06 03:43:16;;;;;;;43.28;27.50;;;51.30;2227.20;;;;;;4970577;28;20401;-59
2023/03/06 03:45:41;;;;;;;58.85;34.05;;;51.30;2227.20;;;;;;4972562;28;20393;-63
2023/03/06 03:48:07;;;;;;;70.28;37.33;;;51.40;2227.20;;;;;;4974421;28;20067;-58
2023/03/06 03:50:33;;;;;;;52.70;30.75;;;51.30;2227.20;;;;;;4974585;28;20027;-57
2023/03/06 03:52:58;;;;;;;60.75;34.85;;;51.30;2227.20;;;;;;4974288;28;20412;-58
2023/03/06 03:55:24;;;;;;;78.32;45.20;;;51.30;2227.20;;;;;;4974829;28;20030;-57
2023/03/06 03:57:50;;;;;;;52.35;29.30;;;51.30;2227.20;;;;;;4974368;28;20046;-57
2023/03/06 04:00:16;;;;;;;94.35;58.25;;;51.30;2227.20;;;;;;4974361;28;20030;-61
2023/03/06 04:02:43;;;;;;;68.88;39.88;;;51.20;2227.20;;;;;;4974277;28;20046;-57
2023/03/06 04:05:11;;;;;;;68.32;40.10;;;51.20;2227.20;;;;;;4974436;28;20027;-58
2023/03/06 04:07:37;;;;;;;89.20;53.20;;;51.20;2227.20;;;;;;4974126;28;20493;-58
2023/03/06 04:10:04;;;;;;;59.63;37.17;;;26.50;2201.60;;;;;;4974244;28;20023;-58
2023/03/06 04:12:29;;;;;;;43.80;24.65;;;51.20;2227.20;;;;;;4974131;28;20035;-57
2023/03/06 04:14:55;;;;;;;45.33;26.25;;;51.20;2227.20;;;;;;4974343;28;20122;-64
2023/03/06 04:17:21;;;;;;;51.75;29.33;;;51.20;2227.20;;;;;;4973940;28;20034;-57
2023/03/06 04:19:46;;;;;;;40.92;21.92;;;26.50;2201.60;;;;;;4974056;28;20027;-58
2023/03/06 04:22:12;;;;;;;35.53;20.75;;;26.20;2201.60;;;;;;4974253;28;20462;-63
2023/03/06 04:24:38;;;;;;;27.02;17.83;;;26.20;2201.60;;;;;;4974087;28;20478;-62
2023/03/06 04:27:04;;;;;;;41.03;20.40;;;26.00;2201.60;;;;;;4974316;28;20027;-57
2023/03/06 04:29:29;;;;;;;35.47;20.05;;;26.20;2201.60;;;;;;4974066;28;20027;-58
2023/03/06 04:31:55;;;;;;;32.25;19.60;;;26.20;2201.60;;;;;;4973934;28;20107;-57
2023/03/06 04:34:21;;;;;;;90.63;45.75;;;26.20;2201.60;;;;;;4974211;28;20132;-58
2023/03/06 04:36:47;;;;;;;74.35;40.10;;;26.30;2201.60;;;;;;4973676;28;20046;-63
2023/03/06 04:39:13;;;;;;;30.63;18.45;;;26.30;2201.60;;;;;;4973603;28;20401;-58
2023/03/06 04:41:40;;;;;;;29.65;18.25;;;26.30;2201.60;;;;;;4973436;28;20439;-57
2023/03/06 04:44:06;;;;;;;39.80;21.70;;;26.20;2201.60;;;;;;4973787;28;20034;-57
2023/03/06 04:46:32;;;;;;;43.58;21.42;;;26.30;2201.60;;;;;;4973481;28;20055;-57
2023/03/06 04:48:57;;;;;;;51.20;30.20;;;26.20;2201.60;;;;;;4973801;28;20015;-63
2023/03/06 04:51:23;;;;;;;30.05;19.42;;;26.20;2201.60;;;;;;4973771;28;20046;-61
2023/03/06 04:53:49;;;;;;;30.35;15.98;;;26.10;2201.60;;;;;;4973319;28;20030;-57
2023/03/06 04:56:15;;;;;;;108.65;55.70;;;26.10;2201.60;;;;;;4973298;28;20038;-62
2023/03/06 04:58:43;;;;;;;89.10;45.80;;;26.20;2201.60;;;;;;4972544;28;20466;-61
2023/03/06 05:01:08;;;;;;;51.97;27.65;;;26.30;2201.60;;;;;;4972972;28;20389;-57
2023/03/06 05:03:34;;;;;;;41.55;22.25;;;26.30;2201.60;;;;;;4973548;28;20035;-59
2023/03/06 05:06:00;;;;;;;40.95;24.88;;;26.30;2201.60;;;;;;4973208;28;20029;-57
2023/03/06 05:08:25;;;;;;;112.00;57.95;;;26.30;2201.60;;;;;;4973438;28;20039;-56
2023/03/06 05:10:56;;;;;;;68.18;37.13;;;26.30;2201.60;;;;;;4973412;28;20496;-63
2023/03/06 05:13:22;;;;;;;47.58;27.00;;;26.20;2201.60;;;;;;4973244;28;20033;-57
2023/03/06 05:15:48;;;;;;;41.85;24.95;;;26.20;2201.60;;;;;;4972891;28;20468;-61
2023/03/06 05:18:13;;;;;;;39.55;20.95;;;26.20;2201.60;;;;;;4973167;28;20037;-57
2023/03/06 05:20:39;;;;;;;32.63;19.30;;;26.20;2201.60;;;;;;4972905;28;20027;-57
2023/03/06 05:23:05;;;;;;;30.88;18.23;;;26.20;2201.60;;;;;;4973184;28;20031;-57
2023/03/06 05:25:30;;;;;;;35.17;19.20;;;26.30;2201.60;;;;;;4973095;28;20054;-57
2023/03/06 05:27:57;;;;;;;39.30;21.50;;;26.20;2201.60;;;;;;4973160;28;20026;-58
2023/03/06 05:30:23;;;;;;;30.65;18.70;;;26.20;2201.60;;;;;;4972882;28;20066;-58
2023/03/06 05:32:49;;;;;;;30.20;18.50;;;26.30;2201.60;;;;;;4972980;28;20077;-61
2023/03/06 05:35:21;;;;;;;29.08;18.15;;;26.30;2201.60;;;;;;4972763;28;20483;-57
2023/03/06 05:37:46;;;;;;;113.65;59.08;;;26.40;2201.60;;;;;;4972512;28;20045;-57
2023/03/06 05:40:13;;;;;;;58.22;33.35;;;26.50;2201.60;;;;;;4972337;28;20130;-58
2023/03/06 05:42:38;;;;;;;147.60;87.40;;;26.50;2201.60;;;;;;4972580;28;20093;-56
2023/03/06 05:45:04;;;;;;;40.17;25.15;;;51.20;2227.20;;;;;;4972896;28;20026;-57
2023/03/06 05:47:31;;;;;;;45.28;25.98;;;26.40;2201.60;;;;;;4972589;28;20122;-57
2023/03/06 05:49:57;;;;;;;66.95;36.95;;;26.40;2201.60;;;;;;4972450;28;20015;-57
2023/03/06 05:52:22;;;;;;;40.75;21.55;;;51.30;2227.20;;;;;;4972510;28;20511;-58
2023/03/06 05:54:50;;;;;;;28.85;18.33;;;51.30;2227.20;;;;;;4972153;28;20061;-57
2023/03/06 05:57:18;;;;;;;33.28;18.05;;;51.40;2227.20;;;;;;4972425;28;20046;-63
2023/03/06 05:59:44;;;;;;;24.58;15.07;;;51.30;2227.20;;;;;;4972604;28;20085;-65
2023/03/06 06:02:09;;;;;;;23.38;14.55;;;51.50;2227.20;;;;;;4972083;28;20031;-63
2023/03/06 06:04:35;;;;;;;28.77;16.42;;;51.50;2227.20;;;;;;4972399;28;20038;-59
2023/03/06 06:07:01;;;;;;;35.03;19.40;;;51.50;2227.20;;;;;;4972392;28;20027;-57
2023/03/06 06:09:28;;;;;;;25.70;16.63;;;51.20;2227.20;;;;;;4971588;28;20102;-61
2023/03/06 06:11:57;;;;;;;31.20;16.60;;;51.40;2227.20;;;;;;4972384;28;20039;-64
2023/03/06 06:14:22;;;;;;;34.33;16.77;;;26.50;2201.60;;;;;;4971914;28;20085;-58
2023/03/06 06:16:50;;;;;;;21.45;14.68;;;26.50;2201.60;;;;;;4972056;28;20039;-58
2023/03/06 06:19:19;;;;;;;25.73;15.10;;;26.50;2201.60;;;;;;4972032;28;20054;-65
2023/03/06 06:21:52;;;;;;;35.80;22.58;;;26.50;2201.60;;;;;;4971736;28;20055;-58
2023/03/06 06:24:20;;;;;;;39.47;24.27;;;26.50;2201.60;;;;;;4971622;28;20041;-64
2023/03/06 06:26:49;;;;;;;45.78;23.13;;;51.60;2227.20;;;;;;4972000;28;20485;-65
2023/03/06 06:29:15;;;;;;;35.72;22.70;;;76.80;2227.20;;;;;;4971746;28;20027;-66
2023/03/06 06:31:41;;;;;;;23.50;15.48;;;103.30;2227.20;;;;;;4971587;28;20041;-63
2023/03/06 06:34:09;;;;;;;26.02;15.57;;;154.20;2252.80;;;;;;4971305;28;20027;-58
2023/03/06 06:36:34;;;;;;;27.88;16.70;;;205.00;2252.80;;;;;;4971715;28;20109;-62
2023/03/06 06:39:00;;;;;;;22.08;14.75;;;230.60;2252.80;;;;;;4970587;28;20138;-59
2023/03/06 06:41:27;;;;;;;19.90;14.68;;;256.20;2124.80;;;;;;4971718;28;20039;-57
2023/03/06 06:43:52;;;;;;;20.30;14.93;;;256.70;2048.00;;;;;;4971638;28;20030;-62
2023/03/06 06:46:19;;;;;;;19.13;14.20;;;282.00;1971.20;;;;;;4971300;28;20074;-64
2023/03/06 06:48:48;;;;;;;25.73;16.33;;;307.20;1945.60;;;;;;4964290;28;20026;-58
2023/03/06 06:51:14;;;;;;;22.55;15.98;;;307.20;1894.40;;;;;;4963587;28;20417;-58
2023/03/06 06:53:40;;;;;;;25.15;18.73;;;307.80;1868.80;;;;;;4971560;28;20030;-58
2023/03/06 06:56:06;;;;;;;22.77;18.98;;;333.20;1868.80;;;;;;4971542;28;20026;-63
2023/03/06 06:58:31;;;;;;;31.80;26.35;;;333.70;1792.00;;;;;;4971451;28;20194;-64
2023/03/06 07:01:07;;;;;;;24.98;18.40;;;358.50;1740.80;;;;;;4971070;28;20018;-60
2023/03/06 07:03:33;;;;;;;23.70;17.88;;;358.40;1740.80;;;;;;4971353;28;20101;-59
2023/03/06 07:05:59;;;;;;;26.85;20.08;;;358.60;1715.20;;;;;;4971245;28;20594;-63
2023/03/06 07:08:24;;;;;;;24.55;19.55;;;358.90;1689.60;;;;;;4971082;28;20113;-63
2023/03/06 07:10:50;;;;;;;29.20;23.88;;;384.10;1664.00;;;;;;4970903;28;20159;-61
2023/03/06 07:13:16;;;;;;;27.08;22.52;;;384.40;1638.40;;;;;;4971076;28;20350;-61
2023/03/06 07:15:42;;;;;;;27.63;23.52;;;384.70;1612.80;;;;;;4970912;28;20042;-63
2023/03/06 07:18:08;;;;;;;36.78;27.58;;;384.90;1587.20;;;;;;4970868;28;20035;-60
2023/03/06 07:20:33;;;;;;;42.67;36.85;;;410.50;1561.60;;;;;;4970266;28;20022;-59
2023/03/06 07:22:59;;;;;;;33.47;28.42;;;435.80;1510.40;;;;;;4970704;28;20022;-62
2023/03/06 07:25:25;;;;;;;41.03;33.25;;;435.60;1510.40;;;;;;4955214;28;20020;-58
2023/03/06 07:27:52;;;;;;;38.75;31.77;;;435.20;1510.40;;;;;;4967831;28;20026;-63
2023/03/06 07:30:18;;;;;;;55.08;42.55;;;435.40;1510.40;;;;;;4970561;28;20830;-59
2023/03/06 07:32:43;;;;;;;62.13;51.20;;;435.30;1510.40;;;;;;4970905;28;20081;-59
2023/03/06 07:35:14;;;;;;;66.47;52.22;;;461.20;1484.80;;;;;;4970482;28;20023;-59
2023/03/06 07:37:39;;;;;;;58.40;47.35;;;435.60;1510.40;;;;;;4970399;28;20039;-60
2023/03/06 07:40:08;;;;;;;62.40;55.13;;;460.90;1484.80;;;;;;4970126;28;20054;-59
2023/03/06 07:42:34;;;;;;;68.05;59.97;;;460.90;1510.40;;;;;;4970836;28;20023;-59
2023/03/06 07:45:00;;;;;;;70.68;60.03;;;486.90;1408.00;;;;;;4970267;28;20046;-60
2023/03/06 07:47:25;;;;;;;96.00;77.43;;;512.30;1382.40;;;;;;4970965;28;20482;-60
2023/03/06 07:49:58;;;;;;;98.22;80.82;;;512.00;1356.80;;;;;;4970418;28;20751;-60
2023/03/06 07:52:24;;;;;;;111.22;87.00;;;512.60;1331.20;;;;;;4970721;28;20046;-59
2023/03/06 07:54:50;;;;;;;126.55;102.10;;;461.70;1408.00;;;;;;4970596;28;20058;-62
2023/03/06 07:57:16;;;;;;;78.80;66.13;;;487.10;1382.40;;;;;;4970280;28;20437;-60
2023/03/06 07:59:41;;;;;;;87.22;76.82;;;486.80;1356.80;;;;;;4970358;28;20027;-60
2023/03/06 08:02:10;;;;;;;100.28;88.93;;;487.10;1356.80;;;;;;4970400;28;20034;-59
2023/03/06 08:04:35;;;;;;;99.45;88.95;;;512.50;1331.20;;;;;;4970683;28;20038;-59
2023/03/06 08:07:02;;;;;;;116.93;104.70;;;537.80;1305.60;;;;;;4970243;28;20381;-58
2023/03/06 08:09:28;;;;;;;116.28;103.80;;;537.90;1280.00;;;;;;4970296;28;20046;-62
2023/03/06 08:11:54;;;;;;;117.25;104.65;;;563.40;1280.00;;;;;;4970525;28;20027;-58
2023/03/06 08:14:20;;;;;;;121.85;107.25;;;563.70;1254.40;;;;;;4970179;28;20058;-58
2023/03/06 08:16:47;;;;;;;113.80;101.38;;;564.00;1228.80;;;;;;4970262;28;20373;-58
2023/03/06 08:19:14;;;;;;;131.73;119.05;;;564.10;1228.80;;;;;;4970378;28;20035;-58
2023/03/06 08:21:41;;;;;;;91.97;82.50;;;564.10;1228.80;;;;;;4970237;28;20023;-59
2023/03/06 08:24:06;;;;;;;92.75;80.65;;;589.20;1177.60;;;;;;4970233;28;21037;-63
2023/03/06 08:26:33;;;;;;;99.30;88.57;;;564.10;1228.80;;;;;;4957449;28;20119;-59
2023/03/06 08:29:00;;;;;;;90.55;81.10;;;589.30;1203.20;;;;;;4970060;28;20023;-58
2023/03/06 08:31:32;;;;;;;86.18;77.00;;;589.30;1177.60;;;;;;4970400;28;20027;-58
2023/03/06 08:34:00;;;;;;;90.05;80.55;;;563.40;1254.40;;;;;;4973507;28;20041;-59
2023/03/06 08:36:26;;;;;;;74.80;67.07;;;563.60;1254.40;;;;;;4973891;28;20034;-63
2023/03/06 08:38:52;;;;;;;71.32;61.13;;;564.00;1203.20;;;;;;4973520;28;20067;-59
2023/03/06 08:41:18;;;;;;;67.60;60.50;;;563.80;1203.20;;;;;;4973483;28;20042;-59
2023/03/06 08:43:44;;;;;;;72.63;64.78;;;563.50;1228.80;;;;;;4973644;28;20113;-61
2023/03/06 08:46:10;;;;;;;86.45;77.55;;;563.70;1228.80;;;;;;4973608;28;20058;-59
2023/03/06 08:48:36;;;;;;;96.00;85.82;;;563.50;1254.40;;;;;;4973535;28;20050;-58
2023/03/06 08:51:02;;;;;;;89.78;79.82;;;563.80;1228.80;;;;;;4973628;28;20386;-62
2023/03/06 08:53:27;;;;;;;78.88;70.57;;;614.90;1152.00;;;;;;4973136;28;20034;-58
2023/03/06 08:55:53;;;;;;;77.38;69.22;;;614.40;1152.00;;;;;;4973455;28;20035;-63
2023/03/06 08:58:19;;;;;;;74.75;67.03;;;589.70;1177.60;;;;;;4973123;28;20046;-60
2023/03/06 09:00:44;;;;;;;72.88;65.13;;;614.60;1177.60;;;;;;4973247;28;20027;-63
2023/03/06 09:03:10;;;;;;;69.72;62.15;;;589.40;1177.60;;;;;;4973192;28;20023;-64
2023/03/06 09:05:36;;;;;;;63.45;56.67;;;564.10;1228.80;;;;;;4973353;28;20025;-64
2023/03/06 09:08:02;;;;;;;65.97;59.00;;;589.40;1203.20;;;;;;4972903;28;20489;-64
2023/03/06 09:10:28;;;;;;;71.63;64.20;;;640.00;1152.00;;;;;;4973128;28;20015;-60
2023/03/06 09:12:53;;;;;;;69.45;62.20;;;640.50;1126.40;;;;;;4973609;28;20030;-59
2023/03/06 09:15:21;;;;;;;74.00;66.20;;;615.00;1126.40;;;;;;4972703;28;20023;-63
2023/03/06 09:17:47;;;;;;;70.10;62.60;;;614.70;1177.60;;;;;;4973145;28;20064;-60
2023/03/06 09:20:14;;;;;;;60.33;53.83;;;615.00;1152.00;;;;;;4973086;28;20461;-62
2023/03/06 09:22:44;;;;;;;73.43;63.05;;;563.70;1254.40;;;;;;4972824;28;20062;-61
2023/03/06 09:25:12;;;;;;;70.93;63.30;;;512.70;1280.00;;;;;;4972509;28;20109;-59
2023/03/06 09:27:38;;;;;;;77.07;68.70;;;512.00;1331.20;;;;;;4972837;28;20026;-58
2023/03/06 09:30:05;;;;;;;68.35;56.92;;;461.20;1459.20;;;;;;4972762;28;20026;-61
2023/03/06 09:32:31;;;;;;;69.68;59.75;;;435.40;1484.80;;;;;;4972828;28;20412;-61
2023/03/06 09:34:56;;;;;;;67.97;53.72;;;435.40;1484.80;;;;;;4972589;28;20057;-61
2023/03/06 09:37:22;;;;;;;65.95;52.10;;;384.60;1561.60;;;;;;4972777;28;20038;-60
2023/03/06 09:39:48;;;;;;;77.55;60.72;;;384.10;1587.20;;;;;;4965472;28;20450;-58
2023/03/06 09:42:20;;;;;;;65.57;49.05;;;384.40;1612.80;;;;;;4966709;28;20023;-60
2023/03/06 09:44:52;;;;;;;129.95;94.25;;;384.40;1587.20;;;;;;4971934;28;20414;-60
2023/03/06 09:47:24;;;;;;;64.47;45.55;;;384.90;1587.20;;;;;;4972600;28;20027;-60
2023/03/06 09:50:09;;;;;;;52.40;42.83;;;384.60;1587.20;;;;;;4972142;28;20466;-61
2023/03/06 09:53:03;;;;;;;60.65;48.20;;;384.00;1612.80;;;;;;4972379;28;20045;-60
2023/03/06 09:55:36;;;;;;;102.97;78.07;;;359.20;1664.00;;;;;;4972127;28;20051;-61
2023/03/06 09:58:01;;;;;;;68.77;48.20;;;384.00;1638.40;;;;;;4972504;28;20034;-61
2023/03/06 10:00:33;;;;;;;78.70;52.65;;;359.20;1638.40;;;;;;4972103;28;20294;-58
2023/03/06 10:03:25;;;;;;;59.08;43.33;;;384.20;1638.40;;;;;;4971915;28;20389;-57
2023/03/06 10:06:08;;;;;;;50.28;37.85;;;384.40;1638.40;;;;;;4966984;28;20030;-61
2023/03/06 10:08:45;;;;;;;49.20;35.20;;;384.20;1612.80;;;;;;4972135;28;20118;-61
2023/03/06 10:11:17;;;;;;;56.67;38.92;;;359.10;1664.00;;;;;;4972629;28;20030;-58
2023/03/06 10:13:47;;;;;;;61.50;45.08;;;359.00;1689.60;;;;;;4972033;28;20396;-59
2023/03/06 10:16:29;;;;;;;64.47;43.15;;;359.20;1689.60;;;;;;4972238;28;20034;-59
2023/03/06 10:18:59;;;;;;;59.85;46.05;;;384.60;1638.40;;;;;;4972310;28;20059;-60
2023/03/06 10:21:58;;;;;;;56.55;40.50;;;384.60;1638.40;;;;;;4972182;28;20023;-58
2023/03/06 10:24:53;;;;;;;53.17;38.92;;;384.40;1638.40;;;;;;4972112;28;20026;-58
2023/03/06 10:27:44;;;;;;;50.70;40.28;;;384.60;1638.40;;;;;;4971237;28;20054;-59
2023/03/06 10:30:28;;;;;;;51.03;36.90;;;409.80;1664.00;;;;;;4971759;28;20474;-61
2023/03/06 10:32:57;;;;;;;58.30;42.58;;;409.60;1638.40;;;;;;4972027;28;20027;-61
2023/03/06 10:35:39;;;;;;;97.68;64.35;;;410.00;1587.20;;;;;;4971956;28;20031;-61
2023/03/06 10:38:23;;;;;;;58.47;37.53;;;409.70;1612.80;;;;;;4971369;28;20472;-59
2023/03/06 10:41:20;;;;;;;47.78;35.70;;;409.60;1612.80;;;;;;4971069;28;20401;-57
2023/03/06 10:44:04;;;;;;;48.40;31.33;;;409.60;1612.80;;;;;;4971559;28;20042;-58
2023/03/06 10:46:32;;;;;;;97.22;61.17;;;409.80;1612.80;;;;;;4971200;28;20037;-58
2023/03/06 10:49:04;;;;;;;114.80;71.75;;;410.10;1612.80;;;;;;4971794;28;20102;-61
2023/03/06 10:51:30;;;;;;;35.65;21.88;;;409.90;1612.80;;;;;;4971251;28;20019;-59
2023/03/06 10:53:57;;;;;;;44.83;29.83;;;410.00;1587.20;;;;;;4971329;28;20034;-62
2023/03/06 10:56:38;;;;;;;52.53;34.58;;;410.00;1587.20;;;;;;4970787;28;20019;-60
2023/03/06 10:59:08;;;;;;;31.30;22.55;;;410.20;1587.20;;;;;;4971269;28;20390;-62
2023/03/06 11:01:34;;;;;;;60.53;41.45;;;410.00;1587.20;;;;;;4971059;28;20029;-58
2023/03/06 11:04:27;;;;;;;38.47;28.30;;;410.30;1587.20;;;;;;4971135;28;20062;-58
2023/03/06 11:07:30;;;;;;;28.15;24.27;;;410.00;1561.60;;;;;;4962101;28;20027;-58
2023/03/06 11:09:55;;;;;;;33.47;23.00;;;410.20;1536.00;;;;;;4971309;28;20027;-61
2023/03/06 11:12:24;;;;;;;37.33;24.58;;;410.20;1561.60;;;;;;4970982;28;20366;-60
2023/03/06 11:15:20;;;;;;;37.28;20.55;;;410.30;1510.40;;;;;;4970859;28;20033;-62
2023/03/06 11:17:50;;;;;;;28.73;19.73;;;410.00;1510.40;;;;;;4953407;28;20074;-58
2023/03/06 11:20:16;;;;;;;25.00;17.27;;;384.80;1510.40;;;;;;4970993;28;20504;-61
2023/03/06 11:22:48;;;;;;;37.05;24.85;;;384.70;1536.00;;;;;;4970928;28;20026;-58
2023/03/06 11:25:17;;;;;;;25.30;16.70;;;409.80;1561.60;;;;;;4970732;28;20510;-58
2023/03/06 11:27:45;;;;;;;26.98;19.30;;;384.60;1510.40;;;;;;4970973;28;20370;-58
2023/03/06 11:30:14;;;;;;;39.63;21.40;;;409.90;1561.60;;;;;;4970980;28;20090;-61
2023/03/06 11:32:52;;;;;;;24.17;17.83;;;384.90;1510.40;;;;;;4971055;28;20023;-60
2023/03/06 11:35:33;;;;;;;21.88;16.90;;;409.70;1510.40;;;;;;4970747;28;20023;-58
2023/03/06 11:38:10;;;;;;;33.95;23.40;;;410.20;1510.40;;;;;;4970504;28;20046;-61
2023/03/06 11:40:42;;;;;;;26.77;18.42;;;410.30;1510.40;;;;;;4970559;28;20050;-61
2023/03/06 11:43:28;;;;;;;39.63;23.85;;;410.50;1484.80;;;;;;4970733;28;20046;-58
2023/03/06 11:46:25;;;;;;;26.33;18.77;;;435.30;1459.20;;;;;;4970943;28;20414;-58
2023/03/06 11:48:56;;;;;;;29.23;20.02;;;435.30;1484.80;;;;;;4970881;28;20378;-61
2023/03/06 11:51:31;;;;;;;35.72;28.50;;;410.20;1484.80;;;;;;4970548;28;20035;-61
2023/03/06 11:53:59;;;;;;;29.95;19.85;;;410.00;1536.00;;;;;;4960299;28;20028;-58
2023/03/06 11:56:47;;;;;;;23.35;15.10;;;409.80;1484.80;;;;;;4964105;28;20109;-60
2023/03/06 11:59:33;;;;;;;19.58;13.23;;;409.90;1484.80;;;;;;4970506;28;20494;-59
2023/03/06 12:02:13;;;;;;;34.33;28.92;;;409.80;1459.20;;;;;;4962917;28;20363;-58
2023/03/06 12:04:56;;;;;;;28.27;20.27;;;409.90;1484.80;;;;;;4970321;28;20022;-58
2023/03/06 12:08:00;;;;;;;21.20;15.73;;;410.00;1510.40;;;;;;4972019;28;20351;-58
2023/03/06 12:10:40;;;;;;;21.98;15.77;;;410.00;1484.80;;;;;;4914879;29;20131;-60